METAR Data
IDs: Format: Raw Decoded Include TAF

Data at: 1622 UTC 26 Sep 2021

LIBA 261555Z 08008KT CAVOK 24/18 Q1019 RMK BKN BKN200 VIS MIN 9999 WIND THR11 09010KT WIND THR29 /////KT BLU

TAF LIBA 261400Z 2615/2624 09015KT CAVOK

LIBC 261550Z 21009KT CAVOK 24/19 Q1020

TAF LIBC 261100Z 2612/2712 02012KT CAVOK
  BECMG 2617/2619 VRB05KT
  BECMG 2708/2710 02012KT


LIBD 261550Z 07008KT CAVOK 24/16 Q1019

TAF LIBD 261100Z 2612/2712 06012KT CAVOK
  BECMG 2617/2619 VRB05KT
  BECMG 2708/2710 05012KT


LIBF 261550Z 07011KT CAVOK 26/16 Q1018

TAF LIBF 261100Z 2612/2712 06012KT CAVOK
  BECMG 2617/2619 VRB05KT
  BECMG 2708/2710 05012KT


LIBG 261550Z 22005KT 180V250 CAVOK 27/17 Q1019

TAF LIBG 261400Z 2615/2624 VRB06KT CAVOK

LIBP 261550Z AUTO 06005KT 360V140 9999 FEW150/// SCT170/// 25/16 Q1017

TAF LIBP 261100Z 2612/2712 06010KT 9999 FEW040
  BECMG 2617/2619 VRB04KT
  BECMG 2708/2710 05010KT


LIBR 261550Z 10005KT CAVOK 23/17 Q1019

TAF LIBR 261100Z 2612/2712 06012KT CAVOK
  BECMG 2617/2619 VRB05KT
  BECMG 2708/2710 05012KT


LIBV 261555Z 18008KT CAVOK 26/15 Q1019 RMK FEW FEW200 VIS MIN 9999 WIND THR32 18008KT WIND THR14 17010KT BLU

TAF LIBV 261400Z 2615/2624 18006KT CAVOK

LICA 261550Z AUTO 24008KT 9999 NCD 25/22 Q1020

TAF LICA 261100Z 2612/2712 27010KT 9999 FEW030
  BECMG 2617/2619 VRB05KT
  BECMG 2708/2710 27010KT


LICC 261550Z 07009KT 9999 FEW015 26/23 Q1019

TAF LICC 261100Z 2612/2712 10012KT 9999 FEW020
  BECMG 2617/2619 26010KT


LICD 261550Z AUTO 15010KT 9999 NCD 27/21 Q1019

TAF LICD 261100Z 2612/2712 14016KT 9999 SCT040
  BECMG 2621/2623 20010KT


LICG 261550Z 18007KT CAVOK 27/18 Q1020

TAF LICG 261400Z 2615/2624 16016KT 9999 FEW030

LICJ 261550Z 05011KT 9999 SCT020 27/21 Q1021

TAF LICJ 261100Z 2612/2712 06012KT 9999 FEW040
  BECMG 2617/2619 VRB05KT
  BECMG 2709/2711 23013KT


LICR 261550Z AUTO VRB01KT 9999 NCD 25/21 Q1020

TAF LICR 261100Z 2612/2712 VRB06KT 9999 SCT030

LICT 261555Z 19009KT 9999 FEW022 27/22 Q1020 RMK BKN SCT100 BKN200 VIS MIN 9999 WIND THR13 19008KT BLU

TAF LICT 261400Z 2615/2624 18015KT 9999 FEW020
  TEMPO 2615/2620 18015G25KT


LICZ 261555Z 06010KT 9999 FEW040 27/26 Q1018 RMK SCT SCT180 VIS MIN 9999 WIND THR28 06009KT WIND THR10 07010KT A3008 BLU

TAF LICZ 261100Z 2612/2712 09010KT 9999 FEW020
  BECMG 2618/2619 VRB03KT FEW020 BKN100
  BECMG 2621/2622 27010KT
  BECMG 2704/2705 SCT100
  BECMG 2707/2708 BKN100


LIEA 261550Z 28010KT 250V320 9999 FEW035 26/23 Q1017

TAF LIEA 261100Z 2612/2712 20010KT 9999 SCT040
  BECMG 2617/2619 VRB05KT
  BECMG 2709/2711 31013KT


LIEE 261550Z 18015KT CAVOK 26/24 Q1016

TAF LIEE 261100Z 2612/2712 16012KT 9999 SCT014
  BECMG 2616/2618 VRB05KT
  BECMG 2702/2704 33010KT


LIED 261555Z 16015KT 9999 SCT010 SCT060 28/26 Q1017 RMK BKN VIS MIN 9999 WIND THR35 16012KT WIND THR17 17010KT BLU

TAF LIED 261400Z 2615/2624 13012KT 9999 SCT020
  BECMG 2618/2620 VRB03KT


LIEO 261550Z 05009KT 020V080 9999 FEW040 30/20 Q1017

TAF AMD LIEO 261216Z 2612/2712 23012KT 9999 SCT040
  TEMPO 2612/2616 23020G30KT
  BECMG 2617/2619 VRB05KT
  BECMG 2709/2711 29013KT


LIPR 261550Z 28009KT 9999 FEW015 SCT040 BKN050 22/19 Q1018

TAF AMD LIPR 261457Z 2614/2712 31012KT 9999 SCT030
  TEMPO 2614/2621 4000 TSRA
  BECMG 2618/2620 16007KT
  BECMG 2704/2706 31012KT


LIPY 261550Z AUTO 17006KT 9999 BKN056/// 25/19 Q1017 RETS

TAF AMD LIPY 261503Z 2615/2712 15010KT 9999 SCT030
  TEMPO 2615/2624 TSRA
  BECMG 2616/2618 32013KT
  BECMG 2620/2622 19008KT
  BECMG 2708/2710 35010KT


LIRA 261550Z 21010KT 9999 SCT050 26/18 Q1019

TAF LIRA 261100Z 2612/2712 20010KT 9999 SCT040
  BECMG 2618/2620 VRB05KT
  TEMPO 2709/2712 TSRA


LIRE 261555Z 13011KT 9999 SCT040 25/23 Q1017 RMK SCT VIS MIN 9999 WIND THR13 14010KT WIND THR31 /////KT BLU

TAF COR LIRE 261418Z 2615/2624 14010KT 9999 FEW015 SCT045
  TEMPO 2615/2618 CAVOK


LIRF 261550Z 13014KT CAVOK 26/22 Q1017 NOSIG

TAF LIRF 261100Z 2612/2718 19010KT 9999 SCT025 SCT050
  BECMG 2616/2618 12012KT
  TEMPO 2703/2715 4000 TSRA BKN012
  BECMG 2710/2712 18012KT
  BECMG 2716/2718 30010KT SCT020


No METAR found for LIRG
No TAF found for LIRG

No METAR found for LIRH
No TAF found for LIRH

No METAR found for LIRL
No TAF found for LIRL

LIRM 261555Z /////KT CAVOK 26/23 Q1019 RMK FEW FEW100 VIS MIN 9999 WIND THR06 21008KT BLU

TAF LIRM 261400Z 2615/2624 VRB05KT 9999 FEW045

LIRN 261550Z 24004KT 190V310 CAVOK 27/19 Q1020 NOSIG

TAF LIRN 261100Z 2612/2712 25010KT 9999 FEW040
  BECMG 2617/2619 VRB05KT
  BECMG 2710/2712 19010KT


LIRP 261545Z 03019KT 9999 -TSRA FEW015CB SCT025 BKN070 18/17 Q1018 TEMPO 5000 TSRA

TAF LIRP 261100Z 2612/2712 12010KT 9999 SCT025 BKN030
  TEMPO 2612/2624 5000 RA BR
  PROB40
  TEMPO 2612/2621 22015KT 2000 TSRA FEW015CB BKN020
  BECMG 2622/2702 2500 BR SCT005 SCT030


LIRQ 261550Z 32024G37KT 290V350 5000 R05/1200U TSRA BR SCT015CB BKN030 17/17 Q1020 RERA WS R05

TAF LIRQ 261100Z 2612/2712 21010KT 9999 BKN040
  TEMPO 2613/2620 TSRA
  BECMG 2618/2620 VRB05KT
  TEMPO 2620/2706 SHRA


LIRS 261555Z 16012KT 9999 FEW020 SCT025 26/25 Q1016 RMK BKN VIS MIN 9999 WIND

TAF LIRS 261400Z 2615/2624 16015KT 9999 FEW010 SCT025
  TEMPO 2615/2617 17015G25KT
  PROB40
  TEMPO 2618/2621 5000 RA BKN015
  TEMPO 2621/2624 3000 TSRA SCT015CB


LIRZ 261550Z AUTO 19008KT 9999 BKN039/// 26/18 Q1018

TAF AMD LIRZ 261351Z 2613/2712 VRB05KT 9999 SCT030
  BECMG 2610/2612 18010KT
  TEMPO 2615/2622 TSRA
  TEMPO 2706/2712 TSRA


LMML 261615Z 19007KT 150V230 CAVOK 26/19 Q1020 NOSIG

TAF LMML 261100Z 2612/2712 15010KT 9999 FEW018
  BECMG 2706/2709 25010KT


DTTA 261600Z 11010KT 070V150 9999 BKN026 31/23 Q1016

TAF DTTA 261100Z 2612/2712 12010KT 9999 SCT030
  BECMG 2616/2618 05010KT
  BECMG 2622/2624 33010KT


DTTJ 261600Z 10013KT CAVOK 30/22 Q1017 NOSIG

TAF DTTJ 261100Z 2612/2712 10010KT 9999 FEW026
  BECMG 2701/2703 VRB02KT
  BECMG 2709/2711 04010KT